Hiattville, Kansas
Current Conditions -  °F | °C
As of 1:35 PM on Monday 22 Dec 2014 (Local Time) from KPTS Reporting Station
Overcast Overcast  
Wind Chill: 51°   Ceiling: 600
Heat Index: 51°   Visibility: 7mi
Dew Point: 51°   Wind: 9mph
Humidity: 100%   Direction: 230°SW
Pressure: 29.48"   Gusts: NA
Location:  37.8381°N, 94.721°W
Report Text: KPTS 221935Z AUTO 23008KT 7SM OVC006 11/11 A2948 RMK AO2 T01050106
Loading
Personal Weather Stations






























Interactive Weather Map New forecast layout! Learn more

10-Day Weather Forecast

Advertisements
Track Severe Weather on mobile